createdAt,value
2019-05-22T00:00:16.618Z,37.00
2019-05-22T00:02:48.251Z,35.23
2019-05-22T00:05:19.798Z,35.87
2019-05-22T00:07:50.610Z,33.33
2019-05-22T00:10:26.954Z,37.20
2019-05-22T00:12:57.729Z,34.63
2019-05-22T00:15:27.053Z,34.57
2019-05-22T00:17:56.024Z,35.60
2019-05-22T00:20:26.388Z,42.43
2019-05-22T00:22:55.712Z,46.77
2019-05-22T00:25:28.827Z,42.60
2019-05-22T00:27:59.856Z,49.03
2019-05-22T00:30:32.056Z,41.37
2019-05-22T00:33:07.713Z,42.20
2019-05-22T00:35:38.044Z,47.50
2019-05-22T00:38:09.102Z,46.67
2019-05-22T00:40:47.468Z,49.63
2019-05-22T00:43:18.760Z,50.87
2019-05-22T00:45:50.039Z,46.50
2019-05-22T00:48:22.024Z,44.23
2019-05-22T00:51:04.255Z,48.40
2019-05-22T00:53:38.128Z,46.67
2019-05-22T00:56:24.978Z,49.90
2019-05-22T00:59:04.242Z,48.97
2019-05-22T01:01:38.862Z,49.57
2019-05-22T01:04:09.948Z,49.73
2019-05-22T01:06:38.978Z,49.90
2019-05-22T01:09:10.139Z,43.20
2019-05-22T01:11:40.490Z,45.63
2019-05-22T01:14:09.726Z,44.60
2019-05-22T01:16:39.610Z,48.03
2019-05-22T01:19:08.465Z,47.07
2019-05-22T01:21:38.273Z,46.37
2019-05-22T01:24:07.698Z,47.93
2019-05-22T01:26:36.752Z,46.87
2019-05-22T01:29:05.946Z,45.97
2019-05-22T01:31:37.314Z,46.07
2019-05-22T01:34:09.593Z,47.63
2019-05-22T01:36:45.827Z,53.67
2019-05-22T01:39:35.156Z,49.93
2019-05-22T01:42:07.607Z,49.10
2019-05-22T01:44:36.259Z,49.27
2019-05-22T01:47:15.343Z,49.77
2019-05-22T01:49:51.775Z,46.77
2019-05-22T01:52:21.475Z,46.57
2019-05-22T01:54:52.706Z,45.90
2019-05-22T01:57:22.801Z,46.00
2019-05-22T01:59:52.786Z,48.43
2019-05-22T02:02:24.537Z,45.80
2019-05-22T02:04:53.129Z,45.87
2019-05-22T02:07:21.949Z,45.03
2019-05-22T02:09:52.219Z,44.80
2019-05-22T02:12:36.317Z,45.83
2019-05-22T02:15:07.518Z,47.83
2019-05-22T02:17:37.337Z,46.57
2019-05-22T02:20:08.824Z,47.57
2019-05-22T02:22:38.792Z,48.27
2019-05-22T02:25:08.316Z,43.30
2019-05-22T02:27:39.120Z,49.50
2019-05-22T02:30:09.471Z,44.63
2019-05-22T02:32:39.037Z,44.63
2019-05-22T02:35:09.272Z,49.70
2019-05-22T02:37:39.197Z,47.07
2019-05-22T02:40:10.857Z,50.07
2019-05-22T02:42:40.347Z,51.73
2019-05-22T02:45:10.787Z,52.53
2019-05-22T02:47:40.621Z,54.93
2019-05-22T02:50:09.471Z,56.00
2019-05-22T02:52:38.586Z,52.77
2019-05-22T02:55:07.566Z,54.33
2019-05-22T02:57:42.560Z,56.63
2019-05-22T03:00:14.453Z,53.70
2019-05-22T03:02:46.243Z,57.83
2019-05-22T03:05:16.442Z,57.50
2019-05-22T03:07:47.098Z,55.73
2019-05-22T03:10:19.493Z,62.53
2019-05-22T03:12:50.178Z,57.67
2019-05-22T03:15:22.235Z,60.80
2019-05-22T03:17:55.918Z,55.30
2019-05-22T03:20:27.305Z,56.93
2019-05-22T03:23:02.955Z,51.93
2019-05-22T03:25:33.459Z,51.50
2019-05-22T03:28:05.074Z,58.30
2019-05-22T03:30:37.094Z,53.93
2019-05-22T03:33:08.260Z,56.13
2019-05-22T03:35:46.197Z,54.27
2019-05-22T03:38:17.678Z,53.67
2019-05-22T03:40:47.848Z,53.20
2019-05-22T03:43:20.691Z,51.43
2019-05-22T03:45:50.713Z,50.40
2019-05-22T03:48:21.384Z,50.20
2019-05-22T03:50:51.860Z,45.00
2019-05-22T03:53:21.186Z,51.33
2019-05-22T03:55:50.911Z,47.83
2019-05-22T03:58:20.518Z,51.20
2019-05-22T04:00:52.130Z,48.73
2019-05-22T04:03:21.199Z,48.27
2019-05-22T04:05:52.772Z,48.20
2019-05-22T04:08:24.096Z,45.63
2019-05-22T04:10:59.043Z,46.27
2019-05-22T04:13:28.976Z,48.30
2019-05-22T04:15:58.787Z,47.37
2019-05-22T04:18:28.313Z,47.47
2019-05-22T04:20:58.889Z,50.77
2019-05-22T04:23:27.674Z,48.10
2019-05-22T04:25:57.726Z,47.23
2019-05-22T04:28:27.902Z,48.57
2019-05-22T04:30:59.917Z,49.07
2019-05-22T04:33:30.840Z,47.73
2019-05-22T04:36:01.783Z,45.50
2019-05-22T04:38:31.449Z,46.20
2019-05-22T04:41:01.583Z,47.77
2019-05-22T04:43:32.760Z,51.00
2019-05-22T04:46:02.176Z,46.77
2019-05-22T04:48:34.480Z,49.37
2019-05-22T04:51:18.061Z,49.87
2019-05-22T04:53:46.851Z,50.60
2019-05-22T04:56:15.419Z,50.83
2019-05-22T04:58:44.072Z,49.20
2019-05-22T05:01:13.189Z,47.50
2019-05-22T05:03:42.227Z,47.57
2019-05-22T05:06:12.481Z,50.87
2019-05-22T05:08:41.336Z,46.23
2019-05-22T05:11:10.094Z,48.03
2019-05-22T05:13:38.865Z,49.50
2019-05-22T05:16:07.552Z,48.37
2019-05-22T05:18:36.255Z,44.20
2019-05-22T05:21:05.665Z,44.47
2019-05-22T05:23:34.402Z,42.53
2019-05-22T05:26:03.116Z,43.20
2019-05-22T05:28:33.656Z,44.27
2019-05-22T05:31:02.692Z,40.73
2019-05-22T05:33:32.398Z,46.00
2019-05-22T05:36:01.181Z,43.03
2019-05-22T05:38:38.430Z,40.30
2019-05-22T05:41:07.666Z,41.97
2019-05-22T05:43:36.403Z,43.03
2019-05-22T05:46:05.452Z,45.13
2019-05-22T05:48:35.055Z,38.43
2019-05-22T05:51:10.101Z,42.50
2019-05-22T05:54:02.997Z,44.43
2019-05-22T05:56:33.761Z,42.30
2019-05-22T05:59:04.400Z,37.23
2019-05-22T06:01:35.401Z,39.57
2019-05-22T06:04:04.503Z,37.00
2019-05-22T06:06:36.239Z,39.40
2019-05-22T06:09:09.092Z,40.17
2019-05-22T06:11:53.110Z,39.67
2019-05-22T06:14:33.728Z,38.87
2019-05-22T06:17:26.244Z,34.53
2019-05-22T06:20:09.927Z,43.20
2019-05-22T06:22:38.602Z,35.63
2019-05-22T06:25:08.490Z,58.53
2019-05-22T06:27:41.573Z,35.27
2019-05-22T06:30:18.091Z,32.73
2019-05-22T06:33:08.243Z,36.53
2019-05-22T06:35:38.706Z,45.20
2019-05-22T06:38:26.955Z,31.20
2019-05-22T06:40:55.933Z,32.47
2019-05-22T06:43:29.253Z,32.90
2019-05-22T06:45:58.251Z,34.63
2019-05-22T06:48:26.821Z,33.47
2019-05-22T06:50:56.451Z,34.97
2019-05-22T06:53:25.195Z,33.00
2019-05-22T06:55:54.010Z,46.60
2019-05-22T06:58:22.817Z,34.07
2019-05-22T07:00:51.647Z,34.53
2019-05-22T07:03:20.812Z,32.60
2019-05-22T07:05:50.493Z,33.33
2019-05-22T07:08:19.744Z,33.27
2019-05-22T07:10:48.895Z,31.57
2019-05-22T07:13:18.339Z,29.07
2019-05-22T07:15:48.653Z,32.13
2019-05-22T07:18:19.710Z,32.10
2019-05-22T07:20:49.846Z,30.07
2019-05-22T07:23:21.398Z,27.37
2019-05-22T07:25:52.434Z,29.20
2019-05-22T07:28:22.829Z,30.70
2019-05-22T07:30:52.504Z,31.60
2019-05-22T07:33:23.017Z,30.13
2019-05-22T07:36:08.607Z,29.40
2019-05-22T07:38:22.768Z,31.23
2019-05-22T07:40:51.922Z,28.70
2019-05-22T07:43:21.621Z,29.03
2019-05-22T07:45:51.745Z,30.83
2019-05-22T07:48:21.700Z,31.80
2019-05-22T07:50:52.126Z,29.63
2019-05-22T07:53:20.948Z,31.80
2019-05-22T07:55:51.787Z,32.73
2019-05-22T07:58:21.835Z,28.20
2019-05-22T08:00:51.789Z,30.87
2019-05-22T08:03:21.598Z,30.90
2019-05-22T08:05:54.972Z,32.40
2019-05-22T08:08:25.650Z,34.17
2019-05-22T08:10:56.400Z,32.17
2019-05-22T08:13:26.632Z,30.37
2019-05-22T08:15:55.928Z,31.47
2019-05-22T08:18:27.127Z,24.83
2019-05-22T08:20:56.331Z,26.20
2019-05-22T08:23:27.491Z,32.80
2019-05-22T08:25:58.765Z,26.23
2019-05-22T08:28:30.528Z,27.67
2019-05-22T08:31:00.752Z,29.23
2019-05-22T08:33:31.799Z,24.03
2019-05-22T08:36:02.488Z,24.03
2019-05-22T08:38:32.635Z,25.43
2019-05-22T08:41:04.015Z,23.80
2019-05-22T08:43:55.771Z,26.57
2019-05-22T08:46:06.673Z,24.87
2019-05-22T08:48:38.147Z,31.47
2019-05-22T08:51:08.720Z,26.87
2019-05-22T08:53:47.628Z,28.67
2019-05-22T08:56:10.129Z,27.00
2019-05-22T08:58:39.686Z,24.43
2019-05-22T09:01:10.194Z,39.37
2019-05-22T09:03:39.503Z,23.10
2019-05-22T09:06:08.919Z,25.73
2019-05-22T09:08:37.608Z,23.67
2019-05-22T09:11:08.562Z,30.47
2019-05-22T09:13:37.986Z,25.03
2019-05-22T09:16:08.693Z,21.13
2019-05-22T09:18:37.440Z,29.40
2019-05-22T09:21:06.496Z,25.37
2019-05-22T09:23:36.090Z,24.27
2019-05-22T09:26:05.827Z,32.27
2019-05-22T09:28:34.770Z,32.90
2019-05-22T09:31:03.709Z,27.77
2019-05-22T09:33:32.946Z,28.00
2019-05-22T09:36:02.043Z,28.73
2019-05-22T09:38:31.120Z,25.23
2019-05-22T09:41:00.924Z,25.00
2019-05-22T09:43:29.567Z,27.97
2019-05-22T09:45:58.254Z,35.73
2019-05-22T09:48:27.059Z,27.93
2019-05-22T09:50:55.954Z,31.67
2019-05-22T09:53:24.734Z,29.97
2019-05-22T09:55:53.965Z,28.83
2019-05-22T09:58:22.936Z,27.17
2019-05-22T10:00:52.362Z,26.67
2019-05-22T10:03:21.114Z,29.33
2019-05-22T10:05:49.868Z,29.27
2019-05-22T10:08:19.725Z,31.23
2019-05-22T10:10:48.920Z,31.43
2019-05-22T10:13:17.739Z,30.27
2019-05-22T10:15:46.436Z,29.27
2019-05-22T10:18:15.365Z,29.23
2019-05-22T10:20:44.172Z,29.57
2019-05-22T10:23:15.981Z,27.93
2019-05-22T10:25:43.490Z,26.63
2019-05-22T10:28:12.482Z,26.07
2019-05-22T10:30:41.973Z,26.13
2019-05-22T10:33:10.823Z,25.97
2019-05-22T10:35:40.381Z,28.17
2019-05-22T10:38:11.774Z,26.33
2019-05-22T10:40:40.429Z,25.30
2019-05-22T10:43:09.385Z,25.33
2019-05-22T10:45:38.571Z,24.80
2019-05-22T10:48:07.444Z,20.43
2019-05-22T10:50:36.771Z,23.67
2019-05-22T10:53:05.860Z,21.83
2019-05-22T10:55:35.846Z,20.80
2019-05-22T10:58:05.634Z,21.70
2019-05-22T11:00:34.481Z,19.13
2019-05-22T11:03:03.427Z,17.87
2019-05-22T11:05:32.448Z,19.40
2019-05-22T11:08:01.467Z,19.27
2019-05-22T11:10:30.504Z,17.67
2019-05-22T11:12:59.379Z,16.77
2019-05-22T11:15:28.225Z,18.93
2019-05-22T11:17:58.163Z,14.73
2019-05-22T11:20:27.982Z,17.47
2019-05-22T11:22:56.819Z,20.87
2019-05-22T11:25:25.526Z,18.60
2019-05-22T11:27:54.671Z,15.60
2019-05-22T11:30:24.173Z,16.77
2019-05-22T11:32:53.871Z,16.10
2019-05-22T11:35:24.247Z,16.90
2019-05-22T11:37:53.270Z,15.50
2019-05-22T11:40:22.403Z,17.27
2019-05-22T11:42:53.657Z,14.80
2019-05-22T11:45:22.731Z,14.40
2019-05-22T11:47:52.451Z,17.57
2019-05-22T11:50:22.359Z,15.30
2019-05-22T11:52:51.386Z,14.10
2019-05-22T11:55:21.007Z,15.40
2019-05-22T11:57:50.062Z,13.47
2019-05-22T12:00:20.149Z,12.43
2019-05-22T12:02:49.532Z,13.17
2019-05-22T12:05:19.536Z,13.40
2019-05-22T12:07:49.090Z,11.73
2019-05-22T12:10:20.785Z,13.97
2019-05-22T12:12:51.241Z,11.93
2019-05-22T12:15:22.981Z,9.47
2019-05-22T12:17:53.110Z,10.70
2019-05-22T12:20:24.051Z,10.63
2019-05-22T12:22:52.918Z,11.77
2019-05-22T12:25:22.249Z,13.43
2019-05-22T12:27:51.151Z,10.73
2019-05-22T12:30:21.361Z,9.73
2019-05-22T12:32:52.499Z,10.93
2019-05-22T12:35:21.911Z,10.17
2019-05-22T12:37:51.160Z,10.37
2019-05-22T12:40:20.843Z,13.77
2019-05-22T12:42:50.210Z,11.00
2019-05-22T12:45:21.874Z,11.07
2019-05-22T12:47:50.499Z,9.60
2019-05-22T12:50:20.406Z,9.47
2019-05-22T12:52:49.783Z,8.47
2019-05-22T12:55:20.551Z,9.33
2019-05-22T12:57:49.647Z,10.97
2019-05-22T13:00:22.557Z,9.87
2019-05-22T13:02:52.525Z,8.63
2019-05-22T13:05:21.600Z,8.00
2019-05-22T13:07:51.134Z,9.97
2019-05-22T13:10:22.031Z,10.63
2019-05-22T13:12:50.749Z,11.23
2019-05-22T13:15:19.618Z,10.27
2019-05-22T13:17:49.320Z,12.67
2019-05-22T13:20:40.513Z,8.80
2019-05-22T13:22:53.425Z,10.07
2019-05-22T13:25:26.262Z,10.13
2019-05-22T13:27:55.279Z,8.50
2019-05-22T13:30:28.482Z,9.67
2019-05-22T13:32:57.081Z,9.43
2019-05-22T13:35:26.891Z,7.20
2019-05-22T13:37:58.028Z,7.47
2019-05-22T13:40:29.104Z,7.80
2019-05-22T13:43:03.367Z,7.63
2019-05-22T13:45:33.853Z,6.90
2019-05-22T13:48:03.299Z,7.57
2019-05-22T13:50:32.761Z,8.40
2019-05-22T13:53:04.089Z,7.63
2019-05-22T13:55:33.808Z,8.97
2019-05-22T13:58:03.697Z,8.33
2019-05-22T14:00:33.442Z,6.97
2019-05-22T14:03:03.168Z,6.17
2019-05-22T14:05:33.785Z,6.37
2019-05-22T14:08:02.594Z,5.53
2019-05-22T14:10:32.588Z,7.00
2019-05-22T14:13:01.751Z,7.23
2019-05-22T14:15:48.331Z,6.47
2019-05-22T14:18:01.641Z,4.97
2019-05-22T14:20:30.421Z,5.47
2019-05-22T14:22:59.219Z,5.07
2019-05-22T14:25:30.360Z,5.97
2019-05-22T14:27:59.156Z,6.33
2019-05-22T14:30:30.933Z,4.70
2019-05-22T14:33:04.320Z,6.03
2019-05-22T14:35:47.066Z,5.90
2019-05-22T14:38:03.997Z,4.13
2019-05-22T14:40:32.806Z,4.77
2019-05-22T14:43:02.553Z,4.23
2019-05-22T14:45:31.433Z,4.23
2019-05-22T14:48:00.170Z,5.10
2019-05-22T14:50:32.759Z,4.27
2019-05-22T14:53:00.263Z,4.17
2019-05-22T14:55:29.885Z,4.00
2019-05-22T14:57:59.300Z,4.03
2019-05-22T15:00:29.778Z,4.43
2019-05-22T15:02:59.842Z,4.63
2019-05-22T15:05:29.098Z,5.10
2019-05-22T15:07:58.198Z,4.83
2019-05-22T15:10:28.675Z,4.83
2019-05-22T15:12:57.567Z,4.80
2019-05-22T15:15:26.606Z,6.73
2019-05-22T15:17:55.294Z,5.47
2019-05-22T15:20:27.746Z,5.20
2019-05-22T15:22:57.083Z,4.70
2019-05-22T15:25:27.925Z,5.37
2019-05-22T15:28:01.616Z,6.27
2019-05-22T15:30:30.540Z,6.37
2019-05-22T15:33:00.010Z,5.70
2019-05-22T15:35:29.252Z,5.77
2019-05-22T15:37:59.562Z,6.37
2019-05-22T15:40:29.485Z,5.40
2019-05-22T15:42:58.652Z,5.23
2019-05-22T15:45:29.119Z,5.80
2019-05-22T15:48:02.224Z,7.53
2019-05-22T15:50:33.856Z,6.23
2019-05-22T15:53:09.529Z,6.70
2019-05-22T15:55:39.129Z,6.10
2019-05-22T15:58:08.905Z,7.90
2019-05-22T16:00:39.111Z,6.40
2019-05-22T16:03:10.753Z,6.60
2019-05-22T16:05:41.216Z,7.83
2019-05-22T16:08:10.679Z,7.73
2019-05-22T16:10:41.005Z,7.80
2019-05-22T16:13:12.175Z,6.27
2019-05-22T16:15:41.940Z,7.27
2019-05-22T16:18:12.908Z,7.23
2019-05-22T16:20:42.317Z,7.23
2019-05-22T16:23:12.318Z,7.67
2019-05-22T16:25:42.532Z,6.70
2019-05-22T16:28:12.228Z,6.73
2019-05-22T16:30:41.772Z,5.97
2019-05-22T16:33:11.048Z,6.30
2019-05-22T16:35:40.064Z,5.83
2019-05-22T16:38:09.424Z,5.97
2019-05-22T16:40:39.309Z,5.83
2019-05-22T16:43:09.688Z,5.87
2019-05-22T16:45:38.876Z,7.63
2019-05-22T16:48:09.256Z,6.17
2019-05-22T16:50:40.831Z,7.07
2019-05-22T16:53:12.066Z,5.97
2019-05-22T16:55:42.535Z,6.43
2019-05-22T16:58:11.734Z,6.87
2019-05-22T17:00:41.548Z,6.50
2019-05-22T17:03:11.352Z,6.47
2019-05-22T17:05:40.118Z,6.40
2019-05-22T17:08:09.960Z,6.77
2019-05-22T17:10:40.067Z,6.53
2019-05-22T17:13:13.608Z,7.43
2019-05-22T17:15:42.648Z,6.97
2019-05-22T17:18:11.521Z,6.37
2019-05-22T17:20:41.323Z,7.20
2019-05-22T17:23:10.337Z,6.63
2019-05-22T17:25:39.036Z,8.33
2019-05-22T17:28:08.547Z,7.10
2019-05-22T17:30:48.381Z,6.67
2019-05-22T17:33:17.483Z,6.60
2019-05-22T17:35:46.794Z,8.17
2019-05-22T17:38:17.005Z,7.30
2019-05-22T17:40:46.120Z,7.30
2019-05-22T17:43:15.593Z,7.27
2019-05-22T17:45:44.903Z,9.03
2019-05-22T17:48:15.358Z,7.77
2019-05-22T17:50:44.629Z,11.50
2019-05-22T17:53:13.915Z,7.80
2019-05-22T17:55:42.708Z,8.30
2019-05-22T17:58:12.200Z,7.30
2019-05-22T18:00:43.043Z,8.57
2019-05-22T18:03:11.859Z,9.77
2019-05-22T18:05:41.098Z,10.13
2019-05-22T18:08:10.274Z,8.93
2019-05-22T18:10:41.717Z,8.40
2019-05-22T18:13:12.206Z,9.50
2019-05-22T18:15:42.322Z,9.37
2019-05-22T18:18:11.183Z,8.27
2019-05-22T18:20:43.660Z,9.93
2019-05-22T18:23:10.757Z,8.37
2019-05-22T18:25:39.862Z,9.50
2019-05-22T18:28:10.473Z,8.70
2019-05-22T18:30:41.193Z,9.73
2019-05-22T18:33:10.223Z,7.97
2019-05-22T18:35:40.253Z,9.17
2019-05-22T18:38:09.392Z,11.07
2019-05-22T18:40:38.357Z,8.40
2019-05-22T18:43:07.583Z,11.17
2019-05-22T18:45:37.351Z,9.73
2019-05-22T18:48:06.836Z,8.97
2019-05-22T18:50:36.231Z,9.30
2019-05-22T18:53:06.093Z,9.37
2019-05-22T18:55:35.093Z,9.40
2019-05-22T18:58:04.211Z,7.40
2019-05-22T19:00:33.645Z,7.70
2019-05-22T19:03:03.191Z,8.57
2019-05-22T19:05:34.005Z,8.33
2019-05-22T19:08:05.089Z,8.63
2019-05-22T19:10:34.121Z,10.03
2019-05-22T19:13:03.931Z,10.07
2019-05-22T19:15:33.946Z,10.27
2019-05-22T19:18:03.270Z,8.73
2019-05-22T19:20:32.516Z,12.87
2019-05-22T19:23:02.317Z,10.43
2019-05-22T19:25:31.547Z,9.17
2019-05-22T19:28:00.130Z,9.03
2019-05-22T19:30:28.999Z,9.67
2019-05-22T19:32:57.686Z,10.13
2019-05-22T19:35:26.318Z,12.17
2019-05-22T19:37:55.828Z,9.93
2019-05-22T19:40:24.588Z,10.27
2019-05-22T19:42:53.401Z,12.87
2019-05-22T19:45:22.717Z,11.20
2019-05-22T19:47:54.565Z,11.17
2019-05-22T19:50:25.455Z,9.60
2019-05-22T19:52:55.669Z,11.60
2019-05-22T19:55:26.022Z,8.80
2019-05-22T19:57:55.056Z,9.27
2019-05-22T20:00:24.634Z,9.80
2019-05-22T20:02:54.299Z,10.60
2019-05-22T20:05:24.123Z,13.24
2019-05-22T20:07:53.273Z,10.90
2019-05-22T20:10:22.492Z,13.33
2019-05-22T20:12:51.578Z,9.47
2019-05-22T20:15:20.853Z,10.33
2019-05-22T20:17:50.305Z,10.53
2019-05-22T20:20:19.903Z,10.63
2019-05-22T20:22:49.714Z,12.00
2019-05-22T20:25:20.082Z,10.97
2019-05-22T20:27:48.880Z,14.77
2019-05-22T20:30:19.256Z,10.73
2019-05-22T20:32:50.142Z,12.27
2019-05-22T20:35:20.437Z,11.07
2019-05-22T20:37:49.484Z,11.17
2019-05-22T20:40:20.468Z,10.63
2019-05-22T20:42:49.486Z,9.23
2019-05-22T20:45:21.180Z,12.03
2019-05-22T20:47:54.872Z,10.83
2019-05-22T20:50:24.584Z,10.80
2019-05-22T20:52:53.472Z,11.80
2019-05-22T20:55:22.656Z,11.83
2019-05-22T20:57:53.114Z,11.30
2019-05-22T21:00:21.959Z,8.20
2019-05-22T21:02:53.585Z,10.93
2019-05-22T21:05:23.052Z,8.50
2019-05-22T21:07:54.438Z,9.67
2019-05-22T21:10:24.480Z,9.53
2019-05-22T21:12:54.329Z,11.23
2019-05-22T21:15:23.740Z,8.77
2019-05-22T21:17:59.051Z,9.63
2019-05-22T21:20:29.512Z,8.73
2019-05-22T21:22:58.304Z,9.10
2019-05-22T21:25:27.310Z,11.63
2019-05-22T21:27:56.601Z,11.60
2019-05-22T21:30:26.704Z,13.50
2019-05-22T21:32:55.787Z,15.77
2019-05-22T21:35:24.681Z,13.13
2019-05-22T21:37:54.096Z,12.53
2019-05-22T21:40:24.074Z,15.13
2019-05-22T21:42:54.851Z,12.20
2019-05-22T21:45:24.227Z,13.63
2019-05-22T21:47:53.304Z,13.50
2019-05-22T21:50:22.000Z,13.90
2019-05-22T21:52:52.244Z,12.03
2019-05-22T21:55:23.362Z,12.47
2019-05-22T21:57:52.709Z,14.80
2019-05-22T22:00:41.405Z,11.80
2019-05-22T22:03:19.067Z,13.53
2019-05-22T22:05:48.343Z,13.43
2019-05-22T22:08:17.519Z,10.47
2019-05-22T22:10:46.793Z,12.00
2019-05-22T22:13:16.154Z,15.60
2019-05-22T22:15:46.238Z,11.73
2019-05-22T22:18:15.926Z,10.27
2019-05-22T22:20:45.259Z,12.83
2019-05-22T22:23:15.328Z,15.43
2019-05-22T22:25:44.511Z,10.67
2019-05-22T22:28:15.815Z,14.00
2019-05-22T22:31:05.261Z,15.10
2019-05-22T22:33:37.125Z,13.97
2019-05-22T22:36:08.396Z,12.23
2019-05-22T22:38:38.123Z,17.63
2019-05-22T22:41:09.163Z,11.77
2019-05-22T22:43:39.581Z,12.07
2019-05-22T22:46:18.476Z,10.90
2019-05-22T22:48:50.179Z,11.13
2019-05-22T22:51:20.342Z,11.37
2019-05-22T22:53:50.233Z,12.17
2019-05-22T22:56:20.838Z,12.00
2019-05-22T22:58:49.537Z,11.27
2019-05-22T23:01:25.627Z,11.47
2019-05-22T23:03:56.788Z,10.70
2019-05-22T23:06:25.510Z,11.13
2019-05-22T23:08:54.742Z,10.00
2019-05-22T23:11:25.025Z,10.13
2019-05-22T23:13:54.855Z,13.73
2019-05-22T23:16:23.874Z,11.97
2019-05-22T23:19:11.359Z,9.60
2019-05-22T23:21:40.577Z,10.47
2019-05-22T23:24:09.707Z,11.60
2019-05-22T23:26:38.531Z,12.43
2019-05-22T23:29:08.598Z,10.97
2019-05-22T23:31:38.339Z,10.00
2019-05-22T23:34:08.053Z,9.13
2019-05-22T23:36:37.832Z,11.50
2019-05-22T23:39:11.150Z,10.20
2019-05-22T23:41:40.920Z,13.40
2019-05-22T23:44:12.510Z,9.97
2019-05-22T23:46:43.129Z,12.90
2019-05-22T23:49:12.690Z,12.30
2019-05-22T23:51:42.258Z,11.67
2019-05-22T23:54:10.823Z,10.27
2019-05-22T23:56:40.036Z,10.43
2019-05-22T23:59:10.544Z,12.83
